Festivo — EAEQ — position and weather

sailwx.info

Track history (hours):
 
Tides and Currents Weather Stations Pressure Air Temp Water Temp Dewpoint Dewpoint Depression Visibility Wind Speed Wind Dir Waves Ship Positions

Festivo

Last reported at 2016-Jul-02 04:33 UTC. Time now 2016-Jul-02 05:44 UTC.
Position N 35°59' W 005°10'.

Length 136 m; draft 4.5 m.

Type: Cargo ship. MMSI: 225410000.

Date/timePositionNaut miles runAvg speedWind from/ knotsBaromVisibWave heightAir tempDewpointWater temp
2016-Jul-02 04:33N 35°59' W 005°10'5 0.1
2016-Jun-30 09:31N 35°57' W 005°15'5 4.7
2016-Jun-30 08:31N 35°54' W 005°19'0 0.0
2016-Jun-30 07:31N 35°54' W 005°19'0 0.0
2016-Jun-30 06:31N 35°54' W 005°19'2 2.1
2016-Jun-30 05:34N 35°55' W 005°18'2 0.0
2016-Jun-28 09:33N 35°56' W 005°16'4 3.7
2016-Jun-28 08:33N 35°54' W 005°19'0 0.0
2016-Jun-28 07:33N 35°54' W 005°19'0 0.0
2016-Jun-28 06:33N 35°54' W 005°19'0 0.2
2016-Jun-28 04:33N 35°54' W 005°19'6 6.2
2016-Jun-28 03:33N 35°58' W 005°13'  
2016-Jun-25 16:33N 35°55' W 005°15'4 3.9
2016-Jun-25 15:32N 35°54' W 005°19'0 0.0
2016-Jun-25 14:32N 35°54' W 005°19'0 0.0
2016-Jun-25 13:32N 35°54' W 005°19'0 0.0
2016-Jun-25 12:32N 35°54' W 005°19'0 0.0
2016-Jun-25 11:32N 35°54' W 005°19'0 0.0
2016-Jun-25 10:32N 35°54' W 005°19'1 0.7
2016-Jun-25 09:34N 35°54' W 005°19'4 3.7
2016-Jun-25 08:33N 35°56' W 005°15'2 0.0
2016-Jun-23 12:05N 35°58' W 005°14'5 9.9
2016-Jun-23 11:33N 35°54' W 005°19'1 0.7
2016-Jun-23 10:32N 35°54' W 005°19'0 0.0
2016-Jun-23 09:32N 35°54' W 005°19'0 0.0
2016-Jun-23 08:34N 35°54' W 005°19'5 5.2
2016-Jun-23 07:34N 35°57' W 005°14'  
Track history (hours):
 
Tides and Currents Weather Stations Pressure Air Temp Water Temp Dewpoint Dewpoint Depression Visibility Wind Speed Wind Dir Waves Ship Positions

Festivo

Last reported at 2016-Jul-02 04:33 UTC. Time now 2016-Jul-02 05:45 UTC.
Position N 35°59' W 005°10'.

Length 136 m; draft 4.5 m.

Type: Cargo ship. MMSI: 225410000.

Date/timePositionNaut miles runAvg speedWind from/ knotsBaromVisibWave heightAir tempDewpointWater temp
2016-Jul-02 04:33N 35°59' W 005°10'5 0.1
2016-Jun-30 09:31N 35°57' W 005°15'5 4.7
2016-Jun-30 08:31N 35°54' W 005°19'0 0.0
2016-Jun-30 07:31N 35°54' W 005°19'0 0.0
2016-Jun-30 06:31N 35°54' W 005°19'2 2.1
2016-Jun-30 05:34N 35°55' W 005°18'2 0.0
2016-Jun-28 09:33N 35°56' W 005°16'4 3.7
2016-Jun-28 08:33N 35°54' W 005°19'0 0.0
2016-Jun-28 07:33N 35°54' W 005°19'0 0.0
2016-Jun-28 06:33N 35°54' W 005°19'0 0.2
2016-Jun-28 04:33N 35°54' W 005°19'6 6.2
2016-Jun-28 03:33N 35°58' W 005°13'  
2016-Jun-25 16:33N 35°55' W 005°15'4 3.9
2016-Jun-25 15:32N 35°54' W 005°19'0 0.0
2016-Jun-25 14:32N 35°54' W 005°19'0 0.0
2016-Jun-25 13:32N 35°54' W 005°19'0 0.0
2016-Jun-25 12:32N 35°54' W 005°19'0 0.0
2016-Jun-25 11:32N 35°54' W 005°19'0 0.0
2016-Jun-25 10:32N 35°54' W 005°19'1 0.7
2016-Jun-25 09:34N 35°54' W 005°19'4 3.7
2016-Jun-25 08:33N 35°56' W 005°15'2 0.0
2016-Jun-23 12:05N 35°58' W 005°14'5 9.9
2016-Jun-23 11:33N 35°54' W 005°19'1 0.7
2016-Jun-23 10:32N 35°54' W 005°19'0 0.0
2016-Jun-23 09:32N 35°54' W 005°19'0 0.0
2016-Jun-23 08:34N 35°54' W 005°19'5 5.2
2016-Jun-23 07:34N 35°57' W 005°14'  

Dump ship's entire track history